sensor_id;sensor_type;location;lat;lon;timestamp;pressure;altitude;pressure_sealevel;temperature;humidity
23281;BME280;11809;56.390;-3.266;2023-07-16T00:00:00;98443.09;;;19.14;66.65
23281;BME280;11809;56.390;-3.266;2023-07-16T00:02:28;98451.91;;;19.14;66.63
23281;BME280;11809;56.390;-3.266;2023-07-16T00:04:55;98450.41;;;19.12;66.46
23281;BME280;11809;56.390;-3.266;2023-07-16T00:07:23;98454.75;;;19.13;66.29
23281;BME280;11809;56.390;-3.266;2023-07-16T00:09:50;98446.09;;;19.11;66.43
23281;BME280;11809;56.390;-3.266;2023-07-16T00:12:17;98451.25;;;19.12;66.44
23281;BME280;11809;56.390;-3.266;2023-07-16T00:14:45;98452.44;;;19.10;66.55
23281;BME280;11809;56.390;-3.266;2023-07-16T00:17:13;98447.09;;;19.10;66.64
23281;BME280;11809;56.390;-3.266;2023-07-16T00:19:41;98445.09;;;19.12;66.60
23281;BME280;11809;56.390;-3.266;2023-07-16T00:22:08;98440.75;;;19.11;66.49
23281;BME280;11809;56.390;-3.266;2023-07-16T00:24:36;98439.13;;;19.10;66.39
23281;BME280;11809;56.390;-3.266;2023-07-16T00:27:03;98439.25;;;19.08;66.46
23281;BME280;11809;56.390;-3.266;2023-07-16T00:29:31;98441.47;;;19.05;66.67
23281;BME280;11809;56.390;-3.266;2023-07-16T00:31:58;98438.78;;;19.05;66.57
23281;BME280;11809;56.390;-3.266;2023-07-16T00:34:28;98435.09;;;19.06;66.61
23281;BME280;11809;56.390;-3.266;2023-07-16T00:36:56;98429.97;;;19.04;66.55
23281;BME280;11809;56.390;-3.266;2023-07-16T00:39:29;98441.47;;;19.05;66.59
23281;BME280;11809;56.390;-3.266;2023-07-16T00:41:57;98437.97;;;19.04;66.59
23281;BME280;11809;56.390;-3.266;2023-07-16T00:44:25;98438.94;;;19.03;66.51
23281;BME280;11809;56.390;-3.266;2023-07-16T00:46:52;98438.13;;;19.03;66.65
23281;BME280;11809;56.390;-3.266;2023-07-16T00:49:20;98445.09;;;19.04;66.77
23281;BME280;11809;56.390;-3.266;2023-07-16T00:51:52;98441.78;;;19.02;66.65
23281;BME280;11809;56.390;-3.266;2023-07-16T00:54:20;98446.28;;;19.01;66.49
23281;BME280;11809;56.390;-3.266;2023-07-16T00:56:48;98436.78;;;18.99;66.50
23281;BME280;11809;56.390;-3.266;2023-07-16T00:59:16;98449.13;;;19.00;66.63
23281;BME280;11809;56.390;-3.266;2023-07-16T01:01:44;98458.75;;;19.01;66.58
23281;BME280;11809;56.390;-3.266;2023-07-16T01:04:12;98471.06;;;19.02;66.32
23281;BME280;11809;56.390;-3.266;2023-07-16T01:06:41;98472.06;;;19.01;66.70
23281;BME280;11809;56.390;-3.266;2023-07-16T01:09:19;98473.06;;;19.00;66.61
23281;BME280;11809;56.390;-3.266;2023-07-16T01:11:48;98472.06;;;19.01;66.46
23281;BME280;11809;56.390;-3.266;2023-07-16T01:14:19;98468.75;;;18.99;66.27
23281;BME280;11809;56.390;-3.266;2023-07-16T01:16:46;98468.56;;;19.00;66.69
23281;BME280;11809;56.390;-3.266;2023-07-16T01:19:13;98465.91;;;19.00;66.35
23281;BME280;11809;56.390;-3.266;2023-07-16T01:29:54;98471.41;;;18.99;66.30
23281;BME280;11809;56.390;-3.266;2023-07-16T01:32:23;98474.06;;;18.99;66.55
23281;BME280;11809;56.390;-3.266;2023-07-16T01:34:52;98476.72;;;18.99;66.25
23281;BME280;11809;56.390;-3.266;2023-07-16T01:37:20;98488.34;;;18.98;66.19
23281;BME280;11809;56.390;-3.266;2023-07-16T01:39:47;98483.03;;;18.98;65.98
23281;BME280;11809;56.390;-3.266;2023-07-16T01:42:14;98480.56;;;18.96;66.02
23281;BME280;11809;56.390;-3.266;2023-07-16T01:44:41;98489.38;;;18.97;66.02
23281;BME280;11809;56.390;-3.266;2023-07-16T01:47:17;98484.19;;;18.95;66.38
23281;BME280;11809;56.390;-3.266;2023-07-16T01:49:48;98486.06;;;18.95;66.52
23281;BME280;11809;56.390;-3.266;2023-07-16T01:52:15;98488.72;;;18.95;66.04
23281;BME280;11809;56.390;-3.266;2023-07-16T01:54:42;98493.22;;;18.94;66.37
23281;BME280;11809;56.390;-3.266;2023-07-16T01:57:09;98485.38;;;18.93;66.44
23281;BME280;11809;56.390;-3.266;2023-07-16T01:59:36;98493.34;;;18.93;66.22
23281;BME280;11809;56.390;-3.266;2023-07-16T02:02:04;98495.19;;;18.92;66.27
23281;BME280;11809;56.390;-3.266;2023-07-16T02:04:31;98502.50;;;18.90;66.46
23281;BME280;11809;56.390;-3.266;2023-07-16T02:06:58;98500.69;;;18.91;66.30
23281;BME280;11809;56.390;-3.266;2023-07-16T02:09:25;98503.34;;;18.91;66.54
23281;BME280;11809;56.390;-3.266;2023-07-16T02:11:52;98505.34;;;18.89;66.22
23281;BME280;11809;56.390;-3.266;2023-07-16T02:14:19;98508.84;;;18.89;66.14
23281;BME280;11809;56.390;-3.266;2023-07-16T02:16:46;98504.50;;;18.88;66.44
23281;BME280;11809;56.390;-3.266;2023-07-16T02:19:14;98509.00;;;18.88;66.40
23281;BME280;11809;56.390;-3.266;2023-07-16T02:21:42;98510.66;;;18.89;66.37
23281;BME280;11809;56.390;-3.266;2023-07-16T02:24:09;98517.63;;;18.90;66.22
23281;BME280;11809;56.390;-3.266;2023-07-16T02:26:36;98519.81;;;18.86;66.52
23281;BME280;11809;56.390;-3.266;2023-07-16T02:29:03;98519.97;;;18.85;66.16
23281;BME280;11809;56.390;-3.266;2023-07-16T02:31:33;98515.66;;;18.84;66.03
23281;BME280;11809;56.390;-3.266;2023-07-16T02:34:00;98517.47;;;18.83;66.19
23281;BME280;11809;56.390;-3.266;2023-07-16T02:36:27;98520.28;;;18.82;66.10
23281;BME280;11809;56.390;-3.266;2023-07-16T02:38:54;98517.63;;;18.82;66.45
23281;BME280;11809;56.390;-3.266;2023-07-16T02:41:21;98521.13;;;18.82;66.26
23281;BME280;11809;56.390;-3.266;2023-07-16T02:44:03;98518.31;;;18.84;66.27
23281;BME280;11809;56.390;-3.266;2023-07-16T02:46:30;98518.47;;;18.82;65.98
23281;BME280;11809;56.390;-3.266;2023-07-16T02:48:57;98517.63;;;18.82;66.33
23281;BME280;11809;56.390;-3.266;2023-07-16T02:51:25;98514.97;;;18.82;66.04
23281;BME280;11809;56.390;-3.266;2023-07-16T02:53:52;98519.63;;;18.80;66.34
23281;BME280;11809;56.390;-3.266;2023-07-16T02:56:19;98528.63;;;18.79;66.15
23281;BME280;11809;56.390;-3.266;2023-07-16T02:58:46;98522.47;;;18.78;66.15
23281;BME280;11809;56.390;-3.266;2023-07-16T03:01:13;98527.94;;;18.76;66.26
23281;BME280;11809;56.390;-3.266;2023-07-16T03:03:41;98525.13;;;18.78;66.15
23281;BME280;11809;56.390;-3.266;2023-07-16T03:06:08;98529.63;;;18.77;66.24
23281;BME280;11809;56.390;-3.266;2023-07-16T03:08:35;98523.44;;;18.77;66.24
23281;BME280;11809;56.390;-3.266;2023-07-16T03:11:02;98525.78;;;18.80;66.05
23281;BME280;11809;56.390;-3.266;2023-07-16T03:13:29;98533.25;;;18.76;66.13
23281;BME280;11809;56.390;-3.266;2023-07-16T03:15:56;98541.25;;;18.76;66.44
23281;BME280;11809;56.390;-3.266;2023-07-16T03:18:28;98540.25;;;18.77;65.94
23281;BME280;11809;56.390;-3.266;2023-07-16T03:20:56;98542.25;;;18.75;66.16
23281;BME280;11809;56.390;-3.266;2023-07-16T03:23:24;98539.59;;;18.75;66.02
23281;BME280;11809;56.390;-3.266;2023-07-16T03:25:51;98539.44;;;18.77;66.22
23281;BME280;11809;56.390;-3.266;2023-07-16T03:28:18;98537.78;;;18.76;66.24
23281;BME280;11809;56.390;-3.266;2023-07-16T03:30:48;98544.91;;;18.75;66.31
23281;BME280;11809;56.390;-3.266;2023-07-16T03:33:15;98546.75;;;18.75;66.43
23281;BME280;11809;56.390;-3.266;2023-07-16T03:35:44;98537.25;;;18.72;66.26
23281;BME280;11809;56.390;-3.266;2023-07-16T03:38:12;98546.22;;;18.71;66.20
23281;BME280;11809;56.390;-3.266;2023-07-16T03:40:42;98543.75;;;18.70;66.33
23281;BME280;11809;56.390;-3.266;2023-07-16T03:43:09;98544.59;;;18.70;66.33
23281;BME280;11809;56.390;-3.266;2023-07-16T03:45:36;98542.91;;;18.69;66.28
23281;BME280;11809;56.390;-3.266;2023-07-16T03:48:03;98562.84;;;18.73;66.24
23281;BME280;11809;56.390;-3.266;2023-07-16T03:50:31;98559.38;;;18.73;66.11
23281;BME280;11809;56.390;-3.266;2023-07-16T03:52:59;98558.88;;;18.69;66.08
23281;BME280;11809;56.390;-3.266;2023-07-16T03:55:26;98554.53;;;18.68;66.33
23281;BME280;11809;56.390;-3.266;2023-07-16T03:57:53;98559.19;;;18.66;66.54
23281;BME280;11809;56.390;-3.266;2023-07-16T04:00:20;98560.88;;;18.67;66.10
23281;BME280;11809;56.390;-3.266;2023-07-16T04:02:47;98557.56;;;18.65;66.48
23281;BME280;11809;56.390;-3.266;2023-07-16T04:05:14;98567.19;;;18.66;66.38
23281;BME280;11809;56.390;-3.266;2023-07-16T04:07:41;98562.88;;;18.65;66.32
23281;BME280;11809;56.390;-3.266;2023-07-16T04:10:08;98565.53;;;18.65;66.17
23281;BME280;11809;56.390;-3.266;2023-07-16T04:12:35;98568.34;;;18.64;66.31
23281;BME280;11809;56.390;-3.266;2023-07-16T04:15:07;98564.50;;;18.66;66.23
23281;BME280;11809;56.390;-3.266;2023-07-16T04:17:35;98573.16;;;18.68;66.18
23281;BME280;11809;56.390;-3.266;2023-07-16T04:20:02;98571.00;;;18.64;66.26
23281;BME280;11809;56.390;-3.266;2023-07-16T04:22:30;98571.84;;;18.64;66.63
23281;BME280;11809;56.390;-3.266;2023-07-16T04:24:57;98577.16;;;18.64;66.30
23281;BME280;11809;56.390;-3.266;2023-07-16T04:27:24;98590.28;;;18.66;66.07
23281;BME280;11809;56.390;-3.266;2023-07-16T04:29:51;98594.94;;;18.64;66.27
23281;BME280;11809;56.390;-3.266;2023-07-16T04:32:18;98595.94;;;18.63;66.10
23281;BME280;11809;56.390;-3.266;2023-07-16T04:34:45;98595.78;;;18.64;65.99
23281;BME280;11809;56.390;-3.266;2023-07-16T04:37:12;98600.13;;;18.65;66.05
23281;BME280;11809;56.390;-3.266;2023-07-16T04:39:39;98595.94;;;18.63;66.42
23281;BME280;11809;56.390;-3.266;2023-07-16T04:42:06;98602.25;;;18.62;66.33
23281;BME280;11809;56.390;-3.266;2023-07-16T04:44:33;98600.44;;;18.62;66.39
23281;BME280;11809;56.390;-3.266;2023-07-16T04:47:00;98612.72;;;18.63;66.43
23281;BME280;11809;56.390;-3.266;2023-07-16T04:49:27;98610.25;;;18.62;66.57
23281;BME280;11809;56.390;-3.266;2023-07-16T04:51:54;98620.88;;;18.62;66.30
23281;BME280;11809;56.390;-3.266;2023-07-16T04:54:21;98620.03;;;18.61;66.41
23281;BME280;11809;56.390;-3.266;2023-07-16T04:56:48;98620.03;;;18.61;66.38
23281;BME280;11809;56.390;-3.266;2023-07-16T04:59:15;98617.38;;;18.61;66.15
23281;BME280;11809;56.390;-3.266;2023-07-16T05:01:42;98618.03;;;18.63;66.42
23281;BME280;11809;56.390;-3.266;2023-07-16T05:04:09;98626.19;;;18.62;66.30
23281;BME280;11809;56.390;-3.266;2023-07-16T05:06:37;98631.34;;;18.63;66.13
23281;BME280;11809;56.390;-3.266;2023-07-16T05:09:04;98629.72;;;18.62;66.38
23281;BME280;11809;56.390;-3.266;2023-07-16T05:11:31;98633.19;;;18.63;66.43
23281;BME280;11809;56.390;-3.266;2023-07-16T05:14:00;98635.69;;;18.64;66.45
23281;BME280;11809;56.390;-3.266;2023-07-16T05:16:27;98636.84;;;18.62;66.33
23281;BME280;11809;56.390;-3.266;2023-07-16T05:18:55;98643.00;;;18.62;66.44
23281;BME280;11809;56.390;-3.266;2023-07-16T05:21:23;98648.31;;;18.62;66.49
23281;BME280;11809;56.390;-3.266;2023-07-16T05:23:50;98660.94;;;18.60;66.67
23281;BME280;11809;56.390;-3.266;2023-07-16T05:26:17;98663.59;;;18.60;66.46
23281;BME280;11809;56.390;-3.266;2023-07-16T05:28:44;98660.13;;;18.60;66.42
23281;BME280;11809;56.390;-3.266;2023-07-16T05:31:11;98662.63;;;18.61;66.52
23281;BME280;11809;56.390;-3.266;2023-07-16T05:33:38;98658.97;;;18.62;66.89
23281;BME280;11809;56.390;-3.266;2023-07-16T05:36:06;98667.94;;;18.61;66.60
23281;BME280;11809;56.390;-3.266;2023-07-16T05:38:33;98664.28;;;18.62;66.88
23281;BME280;11809;56.390;-3.266;2023-07-16T05:41:03;98668.59;;;18.63;66.52
23281;BME280;11809;56.390;-3.266;2023-07-16T05:43:31;98670.28;;;18.64;66.40
23281;BME280;11809;56.390;-3.266;2023-07-16T05:45:59;98663.97;;;18.65;66.38
23281;BME280;11809;56.390;-3.266;2023-07-16T05:48:26;98663.97;;;18.65;66.34
23281;BME280;11809;56.390;-3.266;2023-07-16T05:50:53;98665.31;;;18.69;66.65
23281;BME280;11809;56.390;-3.266;2023-07-16T05:53:20;98673.59;;;18.66;66.74
23281;BME280;11809;56.390;-3.266;2023-07-16T05:55:47;98672.31;;;18.70;66.96
23281;BME280;11809;56.390;-3.266;2023-07-16T05:58:16;98676.63;;;18.71;67.11
23281;BME280;11809;56.390;-3.266;2023-07-16T06:00:43;98688.94;;;18.72;67.59
23281;BME280;11809;56.390;-3.266;2023-07-16T06:03:10;98689.44;;;18.68;67.41
23281;BME280;11809;56.390;-3.266;2023-07-16T06:05:37;98693.34;;;18.56;67.36
23281;BME280;11809;56.390;-3.266;2023-07-16T06:08:04;98700.50;;;18.55;66.84
23281;BME280;11809;56.390;-3.266;2023-07-16T06:10:33;98705.81;;;18.55;67.15
23281;BME280;11809;56.390;-3.266;2023-07-16T06:13:01;98709.97;;;18.58;67.17
23281;BME280;11809;56.390;-3.266;2023-07-16T06:15:28;98708.69;;;18.62;67.49
23281;BME280;11809;56.390;-3.266;2023-07-16T06:17:55;98712.84;;;18.64;67.23
23281;BME280;11809;56.390;-3.266;2023-07-16T06:20:22;98713.50;;;18.66;67.17
23281;BME280;11809;56.390;-3.266;2023-07-16T06:22:50;98716.19;;;18.66;67.47
23281;BME280;11809;56.390;-3.266;2023-07-16T06:25:17;98712.69;;;18.66;67.18
23281;BME280;11809;56.390;-3.266;2023-07-16T06:27:44;98725.84;;;18.67;67.18
23281;BME280;11809;56.390;-3.266;2023-07-16T06:30:11;98725.66;;;18.69;67.13
23281;BME280;11809;56.390;-3.266;2023-07-16T06:32:38;98736.47;;;18.67;67.49
23281;BME280;11809;56.390;-3.266;2023-07-16T06:35:05;98733.66;;;18.69;67.16
23281;BME280;11809;56.390;-3.266;2023-07-16T06:37:33;98732.81;;;18.68;67.18
23281;BME280;11809;56.390;-3.266;2023-07-16T06:40:00;98739.97;;;18.68;66.92
23281;BME280;11809;56.390;-3.266;2023-07-16T06:42:27;98748.78;;;18.68;67.42
23281;BME280;11809;56.390;-3.266;2023-07-16T06:44:54;98753.78;;;18.71;67.42
23281;BME280;11809;56.390;-3.266;2023-07-16T06:47:21;98755.47;;;18.72;67.13
23281;BME280;11809;56.390;-3.266;2023-07-16T06:49:48;98752.50;;;18.75;67.09
23281;BME280;11809;56.390;-3.266;2023-07-16T06:52:22;98757.31;;;18.80;67.34
23281;BME280;11809;56.390;-3.266;2023-07-16T06:54:51;98766.16;;;18.81;67.16
23281;BME280;11809;56.390;-3.266;2023-07-16T06:57:18;98774.97;;;18.81;67.50
23281;BME280;11809;56.390;-3.266;2023-07-16T06:59:45;98778.00;;;18.86;67.56
23281;BME280;11809;56.390;-3.266;2023-07-16T07:02:12;98779.50;;;18.89;67.77
23281;BME280;11809;56.390;-3.266;2023-07-16T07:04:39;98792.50;;;18.92;67.99
23281;BME280;11809;56.390;-3.266;2023-07-16T07:07:06;98792.19;;;18.95;67.59
23281;BME280;11809;56.390;-3.266;2023-07-16T07:09:34;98797.97;;;18.90;67.68
23281;BME280;11809;56.390;-3.266;2023-07-16T07:12:01;98804.75;;;18.85;67.27
23281;BME280;11809;56.390;-3.266;2023-07-16T07:14:29;98808.56;;;18.82;67.65
23281;BME280;11809;56.390;-3.266;2023-07-16T07:16:56;98810.19;;;18.75;66.75
23281;BME280;11809;56.390;-3.266;2023-07-16T07:19:23;98811.66;;;18.69;66.38
23281;BME280;11809;56.390;-3.266;2023-07-16T07:21:50;98822.31;;;18.69;66.88
23281;BME280;11809;56.390;-3.266;2023-07-16T07:24:18;98821.31;;;18.70;67.35
23281;BME280;11809;56.390;-3.266;2023-07-16T07:26:45;98821.81;;;18.74;67.88
23281;BME280;11809;56.390;-3.266;2023-07-16T07:29:12;98814.84;;;18.73;67.45
23281;BME280;11809;56.390;-3.266;2023-07-16T07:31:40;98819.88;;;18.76;67.42
23281;BME280;11809;56.390;-3.266;2023-07-16T07:34:07;98819.69;;;18.77;68.31
23281;BME280;11809;56.390;-3.266;2023-07-16T07:36:35;98821.03;;;18.82;68.43
23281;BME280;11809;56.390;-3.266;2023-07-16T07:39:02;98817.91;;;18.86;68.71
23281;BME280;11809;56.390;-3.266;2023-07-16T07:41:30;98809.28;;;18.92;69.89
23281;BME280;11809;56.390;-3.266;2023-07-16T07:43:57;98821.13;;;18.98;69.61
23281;BME280;11809;56.390;-3.266;2023-07-16T07:46:24;98823.63;;;18.99;68.90
23281;BME280;11809;56.390;-3.266;2023-07-16T07:48:51;98821.50;;;19.03;68.83
23281;BME280;11809;56.390;-3.266;2023-07-16T07:51:18;98821.69;;;19.09;69.00
23281;BME280;11809;56.390;-3.266;2023-07-16T07:53:46;98825.84;;;19.12;68.81
23281;BME280;11809;56.390;-3.266;2023-07-16T07:56:13;98829.19;;;19.14;69.11
23281;BME280;11809;56.390;-3.266;2023-07-16T07:58:40;98820.88;;;19.17;68.18
23281;BME280;11809;56.390;-3.266;2023-07-16T08:01:08;98830.56;;;19.18;68.24
23281;BME280;11809;56.390;-3.266;2023-07-16T08:03:35;98831.38;;;19.18;68.28
23281;BME280;11809;56.390;-3.266;2023-07-16T08:06:03;98833.56;;;19.23;68.41
23281;BME280;11809;56.390;-3.266;2023-07-16T08:08:30;98829.75;;;19.25;67.97
23281;BME280;11809;56.390;-3.266;2023-07-16T08:10:57;98831.91;;;19.30;68.31
23281;BME280;11809;56.390;-3.266;2023-07-16T08:13:24;98843.28;;;19.32;68.27
23281;BME280;11809;56.390;-3.266;2023-07-16T08:15:52;98842.13;;;19.34;68.04
23281;BME280;11809;56.390;-3.266;2023-07-16T08:18:19;98838.59;;;19.34;68.10
23281;BME280;11809;56.390;-3.266;2023-07-16T08:20:46;98852.13;;;19.41;67.94
23281;BME280;11809;56.390;-3.266;2023-07-16T08:23:14;98850.00;;;19.44;68.04
23281;BME280;11809;56.390;-3.266;2023-07-16T08:25:42;98860.34;;;19.47;67.90
23281;BME280;11809;56.390;-3.266;2023-07-16T08:28:09;98864.31;;;19.51;67.79
23281;BME280;11809;56.390;-3.266;2023-07-16T08:30:38;98878.34;;;19.53;67.31
23281;BME280;11809;56.390;-3.266;2023-07-16T08:33:05;98872.34;;;19.59;67.68
23281;BME280;11809;56.390;-3.266;2023-07-16T08:35:32;98877.69;;;19.59;67.32
23281;BME280;11809;56.390;-3.266;2023-07-16T08:38:00;98889.03;;;19.61;66.96
23281;BME280;11809;56.390;-3.266;2023-07-16T08:40:27;98893.34;;;19.62;67.28
23281;BME280;11809;56.390;-3.266;2023-07-16T08:42:55;98884.38;;;19.63;66.84
23281;BME280;11809;56.390;-3.266;2023-07-16T08:45:25;98898.53;;;19.64;66.56
23281;BME280;11809;56.390;-3.266;2023-07-16T08:47:55;98905.38;;;19.66;66.74
23281;BME280;11809;56.390;-3.266;2023-07-16T08:50:24;98911.19;;;19.70;66.42
23281;BME280;11809;56.390;-3.266;2023-07-16T08:52:53;98906.56;;;19.72;66.63
23281;BME280;11809;56.390;-3.266;2023-07-16T08:55:21;98909.22;;;19.72;66.14
23281;BME280;11809;56.390;-3.266;2023-07-16T08:57:48;98902.75;;;19.74;66.47
23281;BME280;11809;56.390;-3.266;2023-07-16T09:00:16;98923.88;;;19.76;66.48
23281;BME280;11809;56.390;-3.266;2023-07-16T09:02:44;98925.06;;;19.81;66.35
23281;BME280;11809;56.390;-3.266;2023-07-16T09:05:11;98925.44;;;19.86;66.06
23281;BME280;11809;56.390;-3.266;2023-07-16T09:08:01;98927.59;;;19.91;65.84
23281;BME280;11809;56.390;-3.266;2023-07-16T09:10:29;98923.09;;;19.91;66.06
23281;BME280;11809;56.390;-3.266;2023-07-16T09:12:58;98925.44;;;19.94;66.03
23281;BME280;11809;56.390;-3.266;2023-07-16T09:15:29;98928.47;;;20.00;66.02
23281;BME280;11809;56.390;-3.266;2023-07-16T09:17:56;98929.97;;;20.02;66.33
23281;BME280;11809;56.390;-3.266;2023-07-16T09:20:24;98919.16;;;20.04;66.22
23281;BME280;11809;56.390;-3.266;2023-07-16T09:22:54;98945.16;;;20.10;66.00
23281;BME280;11809;56.390;-3.266;2023-07-16T09:25:29;98936.69;;;20.14;66.27
23281;BME280;11809;56.390;-3.266;2023-07-16T09:27:58;98946.19;;;20.17;65.95
23281;BME280;11809;56.390;-3.266;2023-07-16T09:30:31;98944.19;;;20.19;66.18
23281;BME280;11809;56.390;-3.266;2023-07-16T09:33:13;98955.38;;;20.22;66.47
23281;BME280;11809;56.390;-3.266;2023-07-16T09:35:41;98958.72;;;20.24;65.89
23281;BME280;11809;56.390;-3.266;2023-07-16T09:38:09;98967.69;;;20.23;65.99
23281;BME280;11809;56.390;-3.266;2023-07-16T09:40:37;98957.88;;;20.24;64.75
23281;BME280;11809;56.390;-3.266;2023-07-16T09:43:06;98970.25;;;20.25;64.42
23281;BME280;11809;56.390;-3.266;2023-07-16T09:45:34;98976.25;;;20.27;64.55
23281;BME280;11809;56.390;-3.266;2023-07-16T09:48:05;98974.25;;;20.29;64.19
23281;BME280;11809;56.390;-3.266;2023-07-16T09:50:34;98985.75;;;20.29;64.53
23281;BME280;11809;56.390;-3.266;2023-07-16T09:53:05;98985.56;;;20.31;64.33
23281;BME280;11809;56.390;-3.266;2023-07-16T09:55:33;98989.75;;;20.33;63.75
23281;BME280;11809;56.390;-3.266;2023-07-16T09:58:04;98985.25;;;20.34;64.29
23281;BME280;11809;56.390;-3.266;2023-07-16T10:00:34;98993.09;;;20.35;64.57
23281;BME280;11809;56.390;-3.266;2023-07-16T10:03:05;99007.13;;;20.37;64.05
23281;BME280;11809;56.390;-3.266;2023-07-16T10:05:36;99013.28;;;20.38;63.81
23281;BME280;11809;56.390;-3.266;2023-07-16T10:08:16;99030.94;;;20.39;64.02
23281;BME280;11809;56.390;-3.266;2023-07-16T10:10:49;99026.13;;;20.42;63.78
23281;BME280;11809;56.390;-3.266;2023-07-16T10:13:23;99023.66;;;20.41;63.85
23281;BME280;11809;56.390;-3.266;2023-07-16T10:15:55;99025.47;;;20.40;64.10
23281;BME280;11809;56.390;-3.266;2023-07-16T10:18:30;99028.63;;;20.44;63.98
23281;BME280;11809;56.390;-3.266;2023-07-16T10:21:08;99046.84;;;20.48;64.19
23281;BME280;11809;56.390;-3.266;2023-07-16T10:23:41;99051.50;;;20.46;63.80
23281;BME280;11809;56.390;-3.266;2023-07-16T10:26:13;99056.16;;;20.44;63.50
23281;BME280;11809;56.390;-3.266;2023-07-16T10:28:46;99055.66;;;20.41;63.53
23281;BME280;11809;56.390;-3.266;2023-07-16T10:31:33;99057.63;;;20.39;62.83
23281;BME280;11809;56.390;-3.266;2023-07-16T10:34:02;99061.31;;;20.38;62.87
23281;BME280;11809;56.390;-3.266;2023-07-16T10:36:41;99071.81;;;20.39;62.59
23281;BME280;11809;56.390;-3.266;2023-07-16T10:39:08;99068.97;;;20.33;61.86
23281;BME280;11809;56.390;-3.266;2023-07-16T10:41:35;99085.00;;;20.33;62.63
23281;BME280;11809;56.390;-3.266;2023-07-16T10:44:04;99085.00;;;20.33;62.45
23281;BME280;11809;56.390;-3.266;2023-07-16T10:46:32;99102.47;;;20.27;62.93
23281;BME280;11809;56.390;-3.266;2023-07-16T10:49:00;99107.81;;;20.27;63.08
23281;BME280;11809;56.390;-3.266;2023-07-16T10:51:29;99107.31;;;20.32;62.75
23281;BME280;11809;56.390;-3.266;2023-07-16T10:53:57;99110.47;;;20.27;nan
23281;BME280;11809;56.390;-3.266;2023-07-16T10:56:27;99109.78;;;20.25;63.36
23281;BME280;11809;56.390;-3.266;2023-07-16T10:58:55;99110.00;;;20.32;63.15
23281;BME280;11809;56.390;-3.266;2023-07-16T11:01:22;99111.97;;;20.30;63.27
23281;BME280;11809;56.390;-3.266;2023-07-16T11:03:50;99119.69;;;20.15;60.63
23281;BME280;11809;56.390;-3.266;2023-07-16T11:06:18;99124.31;;;20.05;60.93
23281;BME280;11809;56.390;-3.266;2023-07-16T11:08:46;99129.16;;;20.10;61.51
23281;BME280;11809;56.390;-3.266;2023-07-16T11:11:14;99138.03;;;20.10;62.24
23281;BME280;11809;56.390;-3.266;2023-07-16T11:13:41;99142.06;;;20.14;62.17
23281;BME280;11809;56.390;-3.266;2023-07-16T11:16:15;99140.53;;;20.12;62.34
23281;BME280;11809;56.390;-3.266;2023-07-16T11:18:43;99152.88;;;20.13;62.16
23281;BME280;11809;56.390;-3.266;2023-07-16T11:21:11;99154.88;;;20.11;62.02
23281;BME280;11809;56.390;-3.266;2023-07-16T11:23:38;99154.56;;;20.14;62.29
23281;BME280;11809;56.390;-3.266;2023-07-16T11:26:06;99160.56;;;20.16;61.75
23281;BME280;11809;56.390;-3.266;2023-07-16T11:28:40;99155.91;;;20.18;62.41
23281;BME280;11809;56.390;-3.266;2023-07-16T11:31:14;99160.91;;;20.21;62.94
23281;BME280;11809;56.390;-3.266;2023-07-16T11:33:45;99171.06;;;20.17;62.65
23281;BME280;11809;56.390;-3.266;2023-07-16T11:36:13;99172.16;;;20.24;63.05
23281;BME280;11809;56.390;-3.266;2023-07-16T11:38:42;99179.97;;;20.26;62.59
23281;BME280;11809;56.390;-3.266;2023-07-16T11:41:10;99186.34;;;20.25;63.23
23281;BME280;11809;56.390;-3.266;2023-07-16T11:43:40;99198.34;;;20.29;62.89
23281;BME280;11809;56.390;-3.266;2023-07-16T11:46:15;99195.53;;;20.30;62.18
23281;BME280;11809;56.390;-3.266;2023-07-16T11:48:44;99197.84;;;20.33;62.23
23281;BME280;11809;56.390;-3.266;2023-07-16T11:51:11;99212.72;;;20.36;62.33
23281;BME280;11809;56.390;-3.266;2023-07-16T11:53:38;99219.22;;;20.33;62.33
23281;BME280;11809;56.390;-3.266;2023-07-16T11:56:06;99215.38;;;20.28;62.58
23281;BME280;11809;56.390;-3.266;2023-07-16T11:58:33;99227.06;;;20.35;62.85
23281;BME280;11809;56.390;-3.266;2023-07-16T12:01:00;99223.06;;;20.39;62.46
23281;BME280;11809;56.390;-3.266;2023-07-16T12:03:27;99240.16;;;20.46;62.16
23281;BME280;11809;56.390;-3.266;2023-07-16T12:05:55;99236.94;;;20.42;62.67
23281;BME280;11809;56.390;-3.266;2023-07-16T12:08:22;99234.44;;;20.41;62.93
23281;BME280;11809;56.390;-3.266;2023-07-16T12:10:49;99250.81;;;20.46;63.11
23281;BME280;11809;56.390;-3.266;2023-07-16T12:15:17;99254.16;;;20.82;58.21
23281;BME280;11809;56.390;-3.266;2023-07-16T12:17:44;99248.44;;;20.69;57.60
23281;BME280;11809;56.390;-3.266;2023-07-16T12:20:11;99243.44;;;20.74;58.49
23281;BME280;11809;56.390;-3.266;2023-07-16T12:22:38;99255.91;;;20.57;57.33
23281;BME280;11809;56.390;-3.266;2023-07-16T12:25:07;99259.25;;;20.59;57.45
23281;BME280;11809;56.390;-3.266;2023-07-16T12:27:34;99262.66;;;20.43;57.28
23281;BME280;11809;56.390;-3.266;2023-07-16T12:30:01;99269.19;;;20.49;58.12
23281;BME280;11809;56.390;-3.266;2023-07-16T12:32:28;99271.06;;;20.31;57.17
23281;BME280;11809;56.390;-3.266;2023-07-16T12:34:56;99272.38;;;20.27;57.09
23281;BME280;11809;56.390;-3.266;2023-07-16T12:37:24;99284.25;;;20.15;56.95
23281;BME280;11809;56.390;-3.266;2023-07-16T12:39:51;99283.97;;;20.00;56.45
23281;BME280;11809;56.390;-3.266;2023-07-16T12:42:18;99289.78;;;19.95;56.50
23281;BME280;11809;56.390;-3.266;2023-07-16T12:44:45;99297.75;;;19.78;57.16
23281;BME280;11809;56.390;-3.266;2023-07-16T12:47:13;99301.66;;;19.83;56.96
23281;BME280;11809;56.390;-3.266;2023-07-16T12:49:40;99310.72;;;19.73;57.46
23281;BME280;11809;56.390;-3.266;2023-07-16T12:52:07;99313.59;;;19.62;58.18
23281;BME280;11809;56.390;-3.266;2023-07-16T12:54:35;99329.81;;;19.51;58.27
23281;BME280;11809;56.390;-3.266;2023-07-16T12:57:03;99332.81;;;19.38;58.18
23281;BME280;11809;56.390;-3.266;2023-07-16T12:59:30;99333.94;;;19.45;58.74
23281;BME280;11809;56.390;-3.266;2023-07-16T13:01:57;99341.28;;;19.51;57.96
23281;BME280;11809;56.390;-3.266;2023-07-16T13:04:25;99346.41;;;19.62;58.53